sensor_id;sensor_type;location;lat;lon;timestamp;temperature;humidity
76577;DHT22;65441;44.748;37.600;2023-06-22T00:01:25;19.07;81.09
76577;DHT22;65441;44.748;37.600;2023-06-22T00:03:54;19.09;78.55
76577;DHT22;65441;44.748;37.600;2023-06-22T00:06:22;18.99;78.33
76577;DHT22;65441;44.748;37.600;2023-06-22T00:08:51;18.98;79.04
76577;DHT22;65441;44.748;37.600;2023-06-22T00:11:21;19.00;80.97
76577;DHT22;65441;44.748;37.600;2023-06-22T00:13:50;19.05;78.22
76577;DHT22;65441;44.748;37.600;2023-06-22T00:16:19;18.72;78.88
76577;DHT22;65441;44.748;37.600;2023-06-22T00:18:48;19.03;78.83
76577;DHT22;65441;44.748;37.600;2023-06-22T00:21:17;19.00;77.95
76577;DHT22;65441;44.748;37.600;2023-06-22T00:23:47;18.87;77.66
76577;DHT22;65441;44.748;37.600;2023-06-22T00:26:16;18.86;79.85
76577;DHT22;65441;44.748;37.600;2023-06-22T00:28:47;19.10;77.17
76577;DHT22;65441;44.748;37.600;2023-06-22T00:31:15;19.03;77.91
76577;DHT22;65441;44.748;37.600;2023-06-22T00:33:44;18.89;78.05
76577;DHT22;65441;44.748;37.600;2023-06-22T00:36:13;18.85;82.04
76577;DHT22;65441;44.748;37.600;2023-06-22T00:38:43;19.01;80.69
76577;DHT22;65441;44.748;37.600;2023-06-22T00:41:12;19.20;78.63
76577;DHT22;65441;44.748;37.600;2023-06-22T00:43:42;18.95;82.10
76577;DHT22;65441;44.748;37.600;2023-06-22T00:46:12;19.25;80.52
76577;DHT22;65441;44.748;37.600;2023-06-22T00:48:41;19.31;79.96
76577;DHT22;65441;44.748;37.600;2023-06-22T00:51:11;19.28;81.70
76577;DHT22;65441;44.748;37.600;2023-06-22T00:53:40;19.28;78.03
76577;DHT22;65441;44.748;37.600;2023-06-22T00:56:11;19.62;78.43
76577;DHT22;65441;44.748;37.600;2023-06-22T00:58:40;19.56;79.00
76577;DHT22;65441;44.748;37.600;2023-06-22T01:01:11;19.37;78.75
76577;DHT22;65441;44.748;37.600;2023-06-22T01:03:41;19.17;79.46
76577;DHT22;65441;44.748;37.600;2023-06-22T01:06:13;19.16;80.50
76577;DHT22;65441;44.748;37.600;2023-06-22T01:08:44;18.98;79.85
76577;DHT22;65441;44.748;37.600;2023-06-22T01:11:19;18.94;79.63
76577;DHT22;65441;44.748;37.600;2023-06-22T01:13:55;18.87;79.84
76577;DHT22;65441;44.748;37.600;2023-06-22T01:16:30;19.05;80.90
76577;DHT22;65441;44.748;37.600;2023-06-22T01:19:06;19.42;80.51
76577;DHT22;65441;44.748;37.600;2023-06-22T01:21:38;19.56;77.82
76577;DHT22;65441;44.748;37.600;2023-06-22T01:24:15;19.65;75.74
76577;DHT22;65441;44.748;37.600;2023-06-22T01:26:57;19.85;77.57
76577;DHT22;65441;44.748;37.600;2023-06-22T01:29:30;20.05;74.35
76577;DHT22;65441;44.748;37.600;2023-06-22T01:32:02;20.16;75.24
76577;DHT22;65441;44.748;37.600;2023-06-22T01:34:32;20.31;76.76
76577;DHT22;65441;44.748;37.600;2023-06-22T01:37:05;20.27;73.89
76577;DHT22;65441;44.748;37.600;2023-06-22T01:39:35;20.28;75.20
76577;DHT22;65441;44.748;37.600;2023-06-22T01:42:05;20.34;74.26
76577;DHT22;65441;44.748;37.600;2023-06-22T01:44:36;20.26;74.73
76577;DHT22;65441;44.748;37.600;2023-06-22T01:47:08;20.24;74.44
76577;DHT22;65441;44.748;37.600;2023-06-22T01:49:37;20.22;74.15
76577;DHT22;65441;44.748;37.600;2023-06-22T01:52:07;20.26;75.13
76577;DHT22;65441;44.748;37.600;2023-06-22T01:54:37;20.17;73.57
76577;DHT22;65441;44.748;37.600;2023-06-22T01:57:07;20.21;75.09
76577;DHT22;65441;44.748;37.600;2023-06-22T01:59:45;20.25;74.38
76577;DHT22;65441;44.748;37.600;2023-06-22T02:02:19;20.21;72.82
76577;DHT22;65441;44.748;37.600;2023-06-22T02:04:57;20.35;75.16
76577;DHT22;65441;44.748;37.600;2023-06-22T02:07:31;20.33;73.29
76577;DHT22;65441;44.748;37.600;2023-06-22T02:10:06;20.40;75.38
76577;DHT22;65441;44.748;37.600;2023-06-22T02:12:36;20.46;73.96
76577;DHT22;65441;44.748;37.600;2023-06-22T02:15:09;20.54;73.31
76577;DHT22;65441;44.748;37.600;2023-06-22T02:17:40;20.70;73.17
76577;DHT22;65441;44.748;37.600;2023-06-22T02:20:12;20.75;73.59
76577;DHT22;65441;44.748;37.600;2023-06-22T02:22:42;20.72;72.38
76577;DHT22;65441;44.748;37.600;2023-06-22T02:25:12;20.71;72.79
76577;DHT22;65441;44.748;37.600;2023-06-22T02:27:40;20.75;72.15
76577;DHT22;65441;44.748;37.600;2023-06-22T02:30:12;20.80;74.32
76577;DHT22;65441;44.748;37.600;2023-06-22T02:32:42;20.70;72.43
76577;DHT22;65441;44.748;37.600;2023-06-22T02:35:11;20.83;71.79
76577;DHT22;65441;44.748;37.600;2023-06-22T02:38:02;20.84;73.83
76577;DHT22;65441;44.748;37.600;2023-06-22T02:40:31;20.70;73.32
76577;DHT22;65441;44.748;37.600;2023-06-22T02:43:01;20.79;74.89
76577;DHT22;65441;44.748;37.600;2023-06-22T02:45:32;20.78;73.61
76577;DHT22;65441;44.748;37.600;2023-06-22T02:48:01;20.76;69.92
76577;DHT22;65441;44.748;37.600;2023-06-22T02:50:30;20.83;73.09
76577;DHT22;65441;44.748;37.600;2023-06-22T02:53:00;20.77;70.79
76577;DHT22;65441;44.748;37.600;2023-06-22T02:55:31;20.87;69.49
76577;DHT22;65441;44.748;37.600;2023-06-22T02:58:00;20.98;69.82
76577;DHT22;65441;44.748;37.600;2023-06-22T03:00:35;21.24;73.22
76577;DHT22;65441;44.748;37.600;2023-06-22T03:03:04;21.19;72.74
76577;DHT22;65441;44.748;37.600;2023-06-22T03:05:32;21.23;73.04
76577;DHT22;65441;44.748;37.600;2023-06-22T03:08:03;21.22;72.24
76577;DHT22;65441;44.748;37.600;2023-06-22T03:10:34;21.35;73.43
76577;DHT22;65441;44.748;37.600;2023-06-22T03:13:03;21.30;73.11
76577;DHT22;65441;44.748;37.600;2023-06-22T03:15:32;21.57;72.13
76577;DHT22;65441;44.748;37.600;2023-06-22T03:18:03;21.68;69.93
76577;DHT22;65441;44.748;37.600;2023-06-22T03:20:32;22.02;71.20
76577;DHT22;65441;44.748;37.600;2023-06-22T03:23:01;22.07;70.48
76577;DHT22;65441;44.748;37.600;2023-06-22T03:25:30;22.02;70.88
76577;DHT22;65441;44.748;37.600;2023-06-22T03:28:01;22.40;70.60
76577;DHT22;65441;44.748;37.600;2023-06-22T03:30:30;22.66;70.65
76577;DHT22;65441;44.748;37.600;2023-06-22T03:33:03;22.72;69.65
76577;DHT22;65441;44.748;37.600;2023-06-22T03:35:36;22.77;69.05
76577;DHT22;65441;44.748;37.600;2023-06-22T03:38:06;23.11;68.10
76577;DHT22;65441;44.748;37.600;2023-06-22T03:40:35;23.30;67.16
76577;DHT22;65441;44.748;37.600;2023-06-22T03:43:04;23.40;66.15
76577;DHT22;65441;44.748;37.600;2023-06-22T03:45:33;23.36;66.07
76577;DHT22;65441;44.748;37.600;2023-06-22T03:48:06;23.57;61.80
76577;DHT22;65441;44.748;37.600;2023-06-22T03:50:38;23.79;63.08
76577;DHT22;65441;44.748;37.600;2023-06-22T03:53:07;24.00;59.67
76577;DHT22;65441;44.748;37.600;2023-06-22T03:55:36;23.94;60.06
76577;DHT22;65441;44.748;37.600;2023-06-22T03:58:05;24.05;60.03
76577;DHT22;65441;44.748;37.600;2023-06-22T04:00:33;24.08;59.44
76577;DHT22;65441;44.748;37.600;2023-06-22T04:03:03;24.16;60.69
76577;DHT22;65441;44.748;37.600;2023-06-22T04:05:35;24.25;60.66
76577;DHT22;65441;44.748;37.600;2023-06-22T04:08:07;24.43;60.40
76577;DHT22;65441;44.748;37.600;2023-06-22T04:10:36;24.72;60.11
76577;DHT22;65441;44.748;37.600;2023-06-22T04:13:05;24.88;59.99
76577;DHT22;65441;44.748;37.600;2023-06-22T04:15:34;25.01;58.71
76577;DHT22;65441;44.748;37.600;2023-06-22T04:18:06;24.97;57.88
76577;DHT22;65441;44.748;37.600;2023-06-22T04:20:41;25.07;58.23
76577;DHT22;65441;44.748;37.600;2023-06-22T04:23:14;25.22;58.41
76577;DHT22;65441;44.748;37.600;2023-06-22T04:25:44;25.47;57.74
76577;DHT22;65441;44.748;37.600;2023-06-22T04:28:13;25.71;56.36
76577;DHT22;65441;44.748;37.600;2023-06-22T04:30:42;25.92;56.08
76577;DHT22;65441;44.748;37.600;2023-06-22T04:33:17;26.08;54.94
76577;DHT22;65441;44.748;37.600;2023-06-22T04:35:48;26.09;53.72
76577;DHT22;65441;44.748;37.600;2023-06-22T04:38:20;26.11;53.58
76577;DHT22;65441;44.748;37.600;2023-06-22T04:40:53;26.18;53.21
76577;DHT22;65441;44.748;37.600;2023-06-22T04:43:27;26.06;51.58
76577;DHT22;65441;44.748;37.600;2023-06-22T04:45:59;26.15;54.28
76577;DHT22;65441;44.748;37.600;2023-06-22T04:48:35;26.30;52.82
76577;DHT22;65441;44.748;37.600;2023-06-22T04:51:05;26.22;51.61
76577;DHT22;65441;44.748;37.600;2023-06-22T04:53:38;26.38;51.91
76577;DHT22;65441;44.748;37.600;2023-06-22T04:56:16;26.63;52.30
76577;DHT22;65441;44.748;37.600;2023-06-22T04:58:53;26.99;52.06
76577;DHT22;65441;44.748;37.600;2023-06-22T05:01:24;27.35;50.70
76577;DHT22;65441;44.748;37.600;2023-06-22T05:03:58;27.71;50.27
76577;DHT22;65441;44.748;37.600;2023-06-22T05:06:37;27.51;50.00
76577;DHT22;65441;44.748;37.600;2023-06-22T05:09:09;27.63;49.89
76577;DHT22;65441;44.748;37.600;2023-06-22T05:11:49;27.73;49.55
76577;DHT22;65441;44.748;37.600;2023-06-22T05:14:23;27.84;48.24
76577;DHT22;65441;44.748;37.600;2023-06-22T05:16:53;28.03;49.23
76577;DHT22;65441;44.748;37.600;2023-06-22T05:19:35;28.12;46.89
76577;DHT22;65441;44.748;37.600;2023-06-22T05:22:27;28.23;47.80
76577;DHT22;65441;44.748;37.600;2023-06-22T05:25:02;28.49;47.09
76577;DHT22;65441;44.748;37.600;2023-06-22T05:27:38;28.67;46.97
76577;DHT22;65441;44.748;37.600;2023-06-22T05:30:12;28.50;46.17
76577;DHT22;65441;44.748;37.600;2023-06-22T05:32:57;28.64;46.86
76577;DHT22;65441;44.748;37.600;2023-06-22T05:35:28;28.88;45.68
76577;DHT22;65441;44.748;37.600;2023-06-22T05:38:37;28.88;46.36
76577;DHT22;65441;44.748;37.600;2023-06-22T05:41:15;29.04;44.45
76577;DHT22;65441;44.748;37.600;2023-06-22T05:43:48;29.17;46.70
76577;DHT22;65441;44.748;37.600;2023-06-22T05:46:21;29.27;44.53
76577;DHT22;65441;44.748;37.600;2023-06-22T05:48:57;29.36;44.79
76577;DHT22;65441;44.748;37.600;2023-06-22T05:54:11;29.48;45.99
76577;DHT22;65441;44.748;37.600;2023-06-22T05:56:48;29.57;43.76
76577;DHT22;65441;44.748;37.600;2023-06-22T05:59:26;29.48;44.03
76577;DHT22;65441;44.748;37.600;2023-06-22T06:01:57;29.66;44.02
76577;DHT22;65441;44.748;37.600;2023-06-22T06:04:37;29.50;42.77
76577;DHT22;65441;44.748;37.600;2023-06-22T06:07:27;29.57;43.85
76577;DHT22;65441;44.748;37.600;2023-06-22T06:10:09;29.87;44.64
76577;DHT22;65441;44.748;37.600;2023-06-22T06:12:41;29.96;42.90
76577;DHT22;65441;44.748;37.600;2023-06-22T06:15:58;30.22;44.63
76577;DHT22;65441;44.748;37.600;2023-06-22T06:19:04;30.40;43.46
76577;DHT22;65441;44.748;37.600;2023-06-22T06:21:23;30.53;42.89
76577;DHT22;65441;44.748;37.600;2023-06-22T06:24:09;30.30;42.53
76577;DHT22;65441;44.748;37.600;2023-06-22T06:27:36;30.30;42.25
76577;DHT22;65441;44.748;37.600;2023-06-22T06:30:15;30.63;41.58
76577;DHT22;65441;44.748;37.600;2023-06-22T06:32:54;30.77;41.04
76577;DHT22;65441;44.748;37.600;2023-06-22T06:35:35;30.87;43.91
76577;DHT22;65441;44.748;37.600;2023-06-22T06:38:09;30.81;43.82
76577;DHT22;65441;44.748;37.600;2023-06-22T06:40:48;30.94;43.95
76577;DHT22;65441;44.748;37.600;2023-06-22T06:43:28;31.04;42.10
76577;DHT22;65441;44.748;37.600;2023-06-22T06:45:59;31.36;41.94
76577;DHT22;65441;44.748;37.600;2023-06-22T06:48:40;31.25;40.17
76577;DHT22;65441;44.748;37.600;2023-06-22T06:51:46;31.26;40.00
76577;DHT22;65441;44.748;37.600;2023-06-22T06:54:10;31.22;41.29
76577;DHT22;65441;44.748;37.600;2023-06-22T06:56:45;31.48;39.39
76577;DHT22;65441;44.748;37.600;2023-06-22T07:02:25;31.50;38.85
76577;DHT22;65441;44.748;37.600;2023-06-22T07:04:55;31.64;39.17
76577;DHT22;65441;44.748;37.600;2023-06-22T07:07:31;31.05;40.36
76577;DHT22;65441;44.748;37.600;2023-06-22T07:10:21;31.58;40.27
76577;DHT22;65441;44.748;37.600;2023-06-22T07:12:54;31.65;38.80
76577;DHT22;65441;44.748;37.600;2023-06-22T07:15:45;31.63;39.78
76577;DHT22;65441;44.748;37.600;2023-06-22T07:18:15;31.79;39.33
76577;DHT22;65441;44.748;37.600;2023-06-22T07:20:44;31.53;36.81
76577;DHT22;65441;44.748;37.600;2023-06-22T07:24:09;31.82;39.09
76577;DHT22;65441;44.748;37.600;2023-06-22T07:26:31;31.79;36.46
76577;DHT22;65441;44.748;37.600;2023-06-22T07:29:33;31.68;38.01
76577;DHT22;65441;44.748;37.600;2023-06-22T07:32:03;31.56;36.72
76577;DHT22;65441;44.748;37.600;2023-06-22T07:34:34;31.19;39.21
76577;DHT22;65441;44.748;37.600;2023-06-22T07:38:09;31.50;39.59
76577;DHT22;65441;44.748;37.600;2023-06-22T07:41:15;31.93;39.36
76577;DHT22;65441;44.748;37.600;2023-06-22T07:44:26;32.37;38.61
76577;DHT22;65441;44.748;37.600;2023-06-22T07:46:43;32.45;36.41
76577;DHT22;65441;44.748;37.600;2023-06-22T07:49:19;32.01;35.06
76577;DHT22;65441;44.748;37.600;2023-06-22T07:55:06;31.86;34.72
76577;DHT22;65441;44.748;37.600;2023-06-22T07:57:46;31.40;34.60
76577;DHT22;65441;44.748;37.600;2023-06-22T08:00:41;31.82;38.20
76577;DHT22;65441;44.748;37.600;2023-06-22T08:03:23;31.18;37.60
76577;DHT22;65441;44.748;37.600;2023-06-22T08:06:52;31.35;35.06
76577;DHT22;65441;44.748;37.600;2023-06-22T08:09:55;31.90;36.73
76577;DHT22;65441;44.748;37.600;2023-06-22T08:12:33;31.92;38.30
76577;DHT22;65441;44.748;37.600;2023-06-22T08:15:12;32.25;37.37
76577;DHT22;65441;44.748;37.600;2023-06-22T08:17:49;32.33;37.24
76577;DHT22;65441;44.748;37.600;2023-06-22T08:23:34;31.74;36.99
76577;DHT22;65441;44.748;37.600;2023-06-22T08:26:56;32.15;38.56
76577;DHT22;65441;44.748;37.600;2023-06-22T08:29:28;32.35;34.67
76577;DHT22;65441;44.748;37.600;2023-06-22T08:32:20;32.60;35.60
76577;DHT22;65441;44.748;37.600;2023-06-22T08:35:47;32.85;34.11
76577;DHT22;65441;44.748;37.600;2023-06-22T08:38:07;32.92;35.28
76577;DHT22;65441;44.748;37.600;2023-06-22T08:40:56;33.12;35.07
76577;DHT22;65441;44.748;37.600;2023-06-22T08:44:01;32.45;34.93
76577;DHT22;65441;44.748;37.600;2023-06-22T08:51:06;32.60;36.04
76577;DHT22;65441;44.748;37.600;2023-06-22T08:53:20;32.11;37.07
76577;DHT22;65441;44.748;37.600;2023-06-22T08:56:44;32.78;37.86
76577;DHT22;65441;44.748;37.600;2023-06-22T09:02:25;32.72;36.46
76577;DHT22;65441;44.748;37.600;2023-06-22T09:05:55;32.66;35.98
76577;DHT22;65441;44.748;37.600;2023-06-22T09:11:08;32.05;33.41
76577;DHT22;65441;44.748;37.600;2023-06-22T09:13:47;31.92;35.51
76577;DHT22;65441;44.748;37.600;2023-06-22T09:17:03;31.11;36.43
76577;DHT22;65441;44.748;37.600;2023-06-22T09:23:24;32.19;35.59
76577;DHT22;65441;44.748;37.600;2023-06-22T09:26:10;32.12;35.90
76577;DHT22;65441;44.748;37.600;2023-06-22T09:32:02;32.67;35.46
76577;DHT22;65441;44.748;37.600;2023-06-22T09:34:35;33.17;34.17
76577;DHT22;65441;44.748;37.600;2023-06-22T09:37:13;33.03;33.01
76577;DHT22;65441;44.748;37.600;2023-06-22T09:40:08;33.20;31.85
76577;DHT22;65441;44.748;37.600;2023-06-22T09:42:57;33.08;34.02
76577;DHT22;65441;44.748;37.600;2023-06-22T09:46:07;32.96;33.04
76577;DHT22;65441;44.748;37.600;2023-06-22T09:48:30;33.06;34.05
76577;DHT22;65441;44.748;37.600;2023-06-22T09:51:17;33.46;33.31
76577;DHT22;65441;44.748;37.600;2023-06-22T09:54:47;33.28;32.43
76577;DHT22;65441;44.748;37.600;2023-06-22T09:57:38;33.43;32.14
76577;DHT22;65441;44.748;37.600;2023-06-22T10:00:50;33.56;31.58
76577;DHT22;65441;44.748;37.600;2023-06-22T10:05:10;32.63;32.62
76577;DHT22;65441;44.748;37.600;2023-06-22T10:06:13;32.78;33.79
76577;DHT22;65441;44.748;37.600;2023-06-22T10:09:08;32.60;33.61
76577;DHT22;65441;44.748;37.600;2023-06-22T10:15:45;31.41;35.24
76577;DHT22;65441;44.748;37.600;2023-06-22T10:18:11;31.02;36.34
76577;DHT22;65441;44.748;37.600;2023-06-22T10:20:42;31.72;37.25
76577;DHT22;65441;44.748;37.600;2023-06-22T10:23:34;32.49;36.80
76577;DHT22;65441;44.748;37.600;2023-06-22T10:26:49;32.94;36.82
76577;DHT22;65441;44.748;37.600;2023-06-22T10:32:08;33.13;34.71
76577;DHT22;65441;44.748;37.600;2023-06-22T10:34:46;33.20;33.65
76577;DHT22;65441;44.748;37.600;2023-06-22T10:37:25;33.29;31.82
76577;DHT22;65441;44.748;37.600;2023-06-22T10:40:30;32.92;31.85
76577;DHT22;65441;44.748;37.600;2023-06-22T10:44:00;32.56;33.69
76577;DHT22;65441;44.748;37.600;2023-06-22T10:46:18;32.90;35.15
76577;DHT22;65441;44.748;37.600;2023-06-22T10:49:10;32.93;34.73
76577;DHT22;65441;44.748;37.600;2023-06-22T10:52:04;33.08;33.76
76577;DHT22;65441;44.748;37.600;2023-06-22T10:55:44;32.27;34.00
76577;DHT22;65441;44.748;37.600;2023-06-22T10:58:24;32.69;33.77
76577;DHT22;65441;44.748;37.600;2023-06-22T11:01:01;32.28;32.27
76577;DHT22;65441;44.748;37.600;2023-06-22T11:03:54;32.52;33.54
76577;DHT22;65441;44.748;37.600;2023-06-22T11:06:53;32.33;33.43
76577;DHT22;65441;44.748;37.600;2023-06-22T11:13:35;32.47;31.36
76577;DHT22;65441;44.748;37.600;2023-06-22T11:15:58;32.07;32.06
76577;DHT22;65441;44.748;37.600;2023-06-22T11:18:38;32.53;31.70
76577;DHT22;65441;44.748;37.600;2023-06-22T11:21:40;32.67;30.75
76577;DHT22;65441;44.748;37.600;2023-06-22T11:27:11;32.88;31.04
76577;DHT22;65441;44.748;37.600;2023-06-22T11:30:58;33.14;31.14
76577;DHT22;65441;44.748;37.600;2023-06-22T11:33:45;32.49;30.85
76577;DHT22;65441;44.748;37.600;2023-06-22T11:36:06;32.32;32.55
76577;DHT22;65441;44.748;37.600;2023-06-22T11:39:19;32.23;32.54
76577;DHT22;65441;44.748;37.600;2023-06-22T11:42:14;32.33;31.24
76577;DHT22;65441;44.748;37.600;2023-06-22T11:44:31;32.00;33.97
76577;DHT22;65441;44.748;37.600;2023-06-22T11:47:44;32.42;33.02
76577;DHT22;65441;44.748;37.600;2023-06-22T11:50:10;32.39;34.35
76577;DHT22;65441;44.748;37.600;2023-06-22T11:53:09;32.15;33.39
76577;DHT22;65441;44.748;37.600;2023-06-22T11:55:46;32.23;34.29
76577;DHT22;65441;44.748;37.600;2023-06-22T12:01:44;32.20;34.31
76577;DHT22;65441;44.748;37.600;2023-06-22T12:04:22;32.16;33.51
76577;DHT22;65441;44.748;37.600;2023-06-22T12:07:02;32.05;33.27
76577;DHT22;65441;44.748;37.600;2023-06-22T12:09:32;32.18;33.12
76577;DHT22;65441;44.748;37.600;2023-06-22T12:12:10;31.82;31.96
76577;DHT22;65441;44.748;37.600;2023-06-22T12:14:50;31.14;33.44
76577;DHT22;65441;44.748;37.600;2023-06-22T12:17:40;30.85;34.64
76577;DHT22;65441;44.748;37.600;2023-06-22T12:20:26;30.70;34.95
76577;DHT22;65441;44.748;37.600;2023-06-22T12:23:56;31.25;35.31
76577;DHT22;65441;44.748;37.600;2023-06-22T12:26:08;31.46;35.61
76577;DHT22;65441;44.748;37.600;2023-06-22T12:29:14;31.58;34.98
76577;DHT22;65441;44.748;37.600;2023-06-22T12:31:59;30.90;33.83
76577;DHT22;65441;44.748;37.600;2023-06-22T12:35:27;30.60;35.74
76577;DHT22;65441;44.748;37.600;2023-06-22T12:37:55;30.72;35.83
76577;DHT22;65441;44.748;37.600;2023-06-22T12:40:26;30.96;35.69
76577;DHT22;65441;44.748;37.600;2023-06-22T12:43:00;30.99;35.01
76577;DHT22;65441;44.748;37.600;2023-06-22T12:45:34;30.98;33.52
76577;DHT22;65441;44.748;37.600;2023-06-22T12:49:12;31.02;33.12
76577;DHT22;65441;44.748;37.600;2023-06-22T12:51:44;31.09;32.82
76577;DHT22;65441;44.748;37.600;2023-06-22T12:54:20;31.07;32.22
76577;DHT22;65441;44.748;37.600;2023-06-22T12:57:21;30.84;32.33
76577;DHT22;65441;44.748;37.600;2023-06-22T12:59:56;30.90;32.22
76577;DHT22;65441;44.748;37.600;2023-06-22T13:02:28;30.80;33.91
76577;DHT22;65441;44.748;37.600;2023-06-22T13:05:01;30.83;33.79
76577;DHT22;65441;44.748;37.600;2023-06-22T13:07:31;30.82;33.54
76577;DHT22;65441;44.748;37.600;2023-06-22T13:10:01;30.90;33.12
76577;DHT22;65441;44.748;37.600;2023-06-22T13:12:34;30.71;32.23
76577;DHT22;65441;44.748;37.600;2023-06-22T13:15:10;30.72;32.35
76577;DHT22;65441;44.748;37.600;2023-06-22T13:17:48;30.99;31.69
76577;DHT22;65441;44.748;37.600;2023-06-22T13:20:23;31.12;32.50
76577;DHT22;65441;44.748;37.600;2023-06-22T13:22:57;30.83;33.02
76577;DHT22;65441;44.748;37.600;2023-06-22T13:25:35;30.83;34.12
76577;DHT22;65441;44.748;37.600;2023-06-22T13:28:10;30.72;31.51
76577;DHT22;65441;44.748;37.600;2023-06-22T13:30:40;30.55;33.75
76577;DHT22;65441;44.748;37.600;2023-06-22T13:33:56;30.10;32.92
76577;DHT22;65441;44.748;37.600;2023-06-22T13:36:49;30.13;31.98
76577;DHT22;65441;44.748;37.600;2023-06-22T13:39:22;30.15;32.72
76577;DHT22;65441;44.748;37.600;2023-06-22T13:42:01;30.05;32.61
76577;DHT22;65441;44.748;37.600;2023-06-22T13:44:34;30.02;32.00
76577;DHT22;65441;44.748;37.600;2023-06-22T13:48:03;30.09;33.30
76577;DHT22;65441;44.748;37.600;2023-06-22T13:50:20;30.06;34.38
76577;DHT22;65441;44.748;37.600;2023-06-22T13:52:53;30.00;34.26
76577;DHT22;65441;44.748;37.600;2023-06-22T13:55:25;29.89;34.89
76577;DHT22;65441;44.748;37.600;2023-06-22T13:58:04;29.95;34.15
76577;DHT22;65441;44.748;37.600;2023-06-22T14:00:58;30.02;34.92
76577;DHT22;65441;44.748;37.600;2023-06-22T14:03:37;29.83;32.59
76577;DHT22;65441;44.748;37.600;2023-06-22T14:06:11;29.81;34.09
76577;DHT22;65441;44.748;37.600;2023-06-22T14:08:41;29.62;33.44
76577;DHT22;65441;44.748;37.600;2023-06-22T14:11:15;29.33;34.60
76577;DHT22;65441;44.748;37.600;2023-06-22T14:13:49;29.42;36.83
76577;DHT22;65441;44.748;37.600;2023-06-22T14:16:24;29.60;36.03
76577;DHT22;65441;44.748;37.600;2023-06-22T14:19:03;29.61;34.49
76577;DHT22;65441;44.748;37.600;2023-06-22T14:21:40;29.42;35.71
76577;DHT22;65441;44.748;37.600;2023-06-22T14:24:09;29.24;35.23
76577;DHT22;65441;44.748;37.600;2023-06-22T14:26:43;29.23;35.15
76577;DHT22;65441;44.748;37.600;2023-06-22T14:29:19;29.18;35.39
76577;DHT22;65441;44.748;37.600;2023-06-22T14:32:02;28.97;36.14
76577;DHT22;65441;44.748;37.600;2023-06-22T14:34:31;28.88;35.73
76577;DHT22;65441;44.748;37.600;2023-06-22T14:37:03;28.82;35.82
76577;DHT22;65441;44.748;37.600;2023-06-22T14:39:33;28.60;36.11
76577;DHT22;65441;44.748;37.600;2023-06-22T14:42:13;28.73;36.30
76577;DHT22;65441;44.748;37.600;2023-06-22T14:44:47;28.62;35.96
76577;DHT22;65441;44.748;37.600;2023-06-22T14:47:38;28.48;36.15
76577;DHT22;65441;44.748;37.600;2023-06-22T14:50:17;28.57;36.98
76577;DHT22;65441;44.748;37.600;2023-06-22T14:52:50;28.59;36.55
76577;DHT22;65441;44.748;37.600;2023-06-22T14:55:40;28.46;36.09
76577;DHT22;65441;44.748;37.600;2023-06-22T14:58:14;28.34;35.44
76577;DHT22;65441;44.748;37.600;2023-06-22T15:00:46;28.23;37.17
76577;DHT22;65441;44.748;37.600;2023-06-22T15:03:21;28.13;37.06
76577;DHT22;65441;44.748;37.600;2023-06-22T15:06:04;28.20;36.82
76577;DHT22;65441;44.748;37.600;2023-06-22T15:08:37;28.25;38.28
76577;DHT22;65441;44.748;37.600;2023-06-22T15:11:16;28.23;37.71
76577;DHT22;65441;44.748;37.600;2023-06-22T15:13:49;27.99;37.61
76577;DHT22;65441;44.748;37.600;2023-06-22T15:16:23;27.93;38.13
76577;DHT22;65441;44.748;37.600;2023-06-22T15:18:56;27.93;37.54
76577;DHT22;65441;44.748;37.600;2023-06-22T15:21:27;27.91;39.72
76577;DHT22;65441;44.748;37.600;2023-06-22T15:24:01;27.93;39.42
76577;DHT22;65441;44.748;37.600;2023-06-22T15:26:33;27.91;38.40
76577;DHT22;65441;44.748;37.600;2023-06-22T15:29:04;27.80;38.61
76577;DHT22;65441;44.748;37.600;2023-06-22T15:31:36;27.61;37.98
76577;DHT22;65441;44.748;37.600;2023-06-22T15:34:15;27.57;38.25
76577;DHT22;65441;44.748;37.600;2023-06-22T15:36:46;27.40;37.79
76577;DHT22;65441;44.748;37.600;2023-06-22T15:39:20;27.29;38.45
76577;DHT22;65441;44.748;37.600;2023-06-22T15:41:52;27.12;39.00
76577;DHT22;65441;44.748;37.600;2023-06-22T15:44:22;27.12;41.02
76577;DHT22;65441;44.748;37.600;2023-06-22T15:46:58;27.15;39.17
76577;DHT22;65441;44.748;37.600;2023-06-22T15:49:29;27.10;39.26
76577;DHT22;65441;44.748;37.600;2023-06-22T15:51:59;26.99;39.29
76577;DHT22;65441;44.748;37.600;2023-06-22T15:54:29;26.95;40.53
76577;DHT22;65441;44.748;37.600;2023-06-22T15:57:04;26.78;39.69
76577;DHT22;65441;44.748;37.600;2023-06-22T15:59:37;26.65;40.22
76577;DHT22;65441;44.748;37.600;2023-06-22T16:02:09;26.70;40.65
76577;DHT22;65441;44.748;37.600;2023-06-22T16:04:44;26.69;41.57
76577;DHT22;65441;44.748;37.600;2023-06-22T16:07:17;26.68;44.35
76577;DHT22;65441;44.748;37.600;2023-06-22T16:09:46;26.67;42.87
76577;DHT22;65441;44.748;37.600;2023-06-22T16:12:22;26.60;43.06
76577;DHT22;65441;44.748;37.600;2023-06-22T16:14:56;26.53;42.09
76577;DHT22;65441;44.748;37.600;2023-06-22T16:17:27;26.41;41.14
76577;DHT22;65441;44.748;37.600;2023-06-22T16:19:58;26.33;41.64
76577;DHT22;65441;44.748;37.600;2023-06-22T16:22:27;26.31;44.19
76577;DHT22;65441;44.748;37.600;2023-06-22T16:24:59;26.18;42.52
76577;DHT22;65441;44.748;37.600;2023-06-22T16:27:31;26.04;44.61
76577;DHT22;65441;44.748;37.600;2023-06-22T16:30:02;25.92;43.90
76577;DHT22;65441;44.748;37.600;2023-06-22T16:32:36;25.86;43.87
76577;DHT22;65441;44.748;37.600;2023-06-22T16:35:09;25.64;43.67
76577;DHT22;65441;44.748;37.600;2023-06-22T16:37:39;25.64;45.12
76577;DHT22;65441;44.748;37.600;2023-06-22T16:40:09;25.58;48.64
76577;DHT22;65441;44.748;37.600;2023-06-22T16:42:41;25.56;45.32
76577;DHT22;65441;44.748;37.600;2023-06-22T16:45:15;25.39;46.99
76577;DHT22;65441;44.748;37.600;2023-06-22T16:47:50;25.28;49.89
76577;DHT22;65441;44.748;37.600;2023-06-22T16:50:19;25.21;49.74
76577;DHT22;65441;44.748;37.600;2023-06-22T16:52:50;25.06;51.65
76577;DHT22;65441;44.748;37.600;2023-06-22T16:55:23;24.88;50.29
76577;DHT22;65441;44.748;37.600;2023-06-22T16:57:56;24.72;54.79
76577;DHT22;65441;44.748;37.600;2023-06-22T17:00:27;24.57;52.35
76577;DHT22;65441;44.748;37.600;2023-06-22T17:03:00;24.44;52.17
76577;DHT22;65441;44.748;37.600;2023-06-22T17:05:33;24.36;54.39
76577;DHT22;65441;44.748;37.600;2023-06-22T17:08:05;24.16;53.07
76577;DHT22;65441;44.748;37.600;2023-06-22T17:10:38;24.05;55.86